Ain Oussera Airport

DAAQ · Djelfa, Algeria

METAR history DAAQ · Ain Oussera Airport

Below you see METARs of the last few days. Select a year to browse through older METARs, from the year 2007 onwards.

February 28, 2024

Time Code Weather Temp. Visibility Ceiling Wind METAR/SPECI
10:00
V
10 °C 10 km+ - 310° 310° 11 kt METAR DAAD 280900Z 31011KT 9999 FEW016 SCT026 10/02 Q1015
09:00
M
9 °C 10 km+ 2,600 ft 320° 320° 16 kt METAR DAAD 280800Z 32016KT 9999 FEW016 BKN026 09/03 Q1015
08:00
V
8 °C 10 km+ - 270° 270° 12 kt METAR DAAD 280700Z 27012KT 9999 FEW016 SCT030 08/02 Q1014
07:00
V
8 °C 10 km+ - 310° 310° 9 kt METAR DAAD 280600Z 31009KT 9999 SCT030 08/01 Q1013

February 27, 2024

Time Code Weather Temp. Visibility Ceiling Wind METAR/SPECI
19:00
V
11 °C 10 km+ - 320° 320° 18 kt METAR DAAD 271800Z 32018KT 9999 SCT030 11/03 Q1011
18:00
M
12 °C 10 km+ 3,000 ft 310° 310° 17 kt METAR DAAD 271700Z 31017KT 9999 BKN030 12/02 Q1010
17:00
M
12 °C 10 km+ 3,000 ft 310° 310° 16 kt METAR DAAD 271600Z 31016KT 9999 BKN030 12/02 Q1009
16:00
M
14 °C 10 km+ 3,000 ft 320° 320° 16 kt METAR DAAD 271500Z 32016KT 9999 FEW026TCU BKN030 14/03 Q1009
15:00
M
12 °C 8 km 3,000 ft 300° 300° 15 kt METAR DAAD 271400Z 30015KT 8000 FEW026TCU BKN030 12/04 Q1009
14:00
M
14 °C 8 km 3,000 ft 320° 320° 21 kt METAR DAAD 271300Z 32021KT 8000 FEW026TCU BKN030 14/00 Q1009
13:00
M
14 °C 10 km+ 3,000 ft 310° 310° 17 - 27 kt METAR DAAD 271200Z 31017G27KT 9999 FEW026TCU BKN030 14/02 Q1009
12:00
M
13 °C 10 km+ 3,000 ft 310° 310° 17 kt METAR DAAD 271100Z 31017KT 9999 FEW026TCU BKN030 13/01 Q1010
11:00
M
12 °C 10 km+ 3,000 ft 320° 320° 16 kt METAR DAAD 271000Z 32016KT 9999 BKN030 12/02 Q1010
10:00
V
11 °C 10 km+ - 280° 280° 15 kt METAR DAAD 270900Z 28015KT 9999 FEW026 SCT030 11/02 Q1010
09:00
V
10 °C 10 km+ - 280° 280° 11 kt METAR DAAD 270800Z 28011KT 9999 SCT030 10/02 Q1009
08:00
V
8 °C 10 km+ - 260° 260° 11 kt METAR DAAD 270700Z 26011KT 9999 FEW030 08/02 Q1009
07:00
V
8 °C 10 km+ - 280° 280° 10 kt METAR DAAD 270600Z 28010KT 9999 FEW026 08/01 Q1009

February 26, 2024

Time Code Weather Temp. Visibility Ceiling Wind METAR/SPECI
19:00
V
17 °C 8 km 23,300 ft 230° 230° 5 kt METAR DAAD 261800Z 23005KT 8000 SCT033 BKN233 17/04 Q1007
18:00
V
18 °C 8 km 3,300 ft 280° 280° 8 kt METAR DAAD 261700Z 28008KT 8000 SCT030 BKN033 18/05 Q1007
17:00
M
19 °C 7 km 3,300 ft 290° 290° 8 kt METAR DAAD 261600Z 29008KT 7000 FEW026CB SCT030 BKN033 19/05 Q1008
16:00
M
19 °C 6 km 3,300 ft 290° 290° 12 kt METAR DAAD 261500Z 29012KT 6000 FEW026CB SCT030 BKN033 19/05 Q1008
15:00
V
18 °C 8 km - 290° 290° 10 kt METAR DAAD 261400Z 29010KT 8000 FEW026TCU SCT030 18/04 Q1009
14:00
V
18 °C 8 km - 300° 300° 12 kt METAR DAAD 261300Z 30012KT 8000 SCT030 SCT200 18/04 Q1010
13:00
V
17 °C 8 km 20,000 ft 280° 280° 8 kt METAR DAAD 261200Z 28008KT 8000 FEW030 BKN200 17/05 Q1011
12:00
V
16 °C 8 km 20,000 ft 270° 270° 14 kt METAR DAAD 261100Z 27014KT 8000 FEW030 BKN200 16/05 Q1012
11:00
V
15 °C 8 km 20,000 ft 280° 280° 14 kt METAR DAAD 261000Z 28014KT 8000 FEW030 BKN200 15/05 Q1013
10:00
V
14 °C 8 km 20,000 ft 280° 280° 14 kt METAR DAAD 260900Z 28014KT 8000 FEW030 BKN200 14/05 Q1013
09:00
V
13 °C 10 km+ 23,300 ft 270° 270° 13 kt METAR DAAD 260800Z 27013KT 9999 FEW030 BKN233 13/05 Q1013
08:00
V
12 °C 10 km+ 23,300 ft 270° 270° 15 kt METAR DAAD 260700Z 27015KT 9999 FEW030 BKN233 12/05 Q1013
07:00
V
12 °C 10 km+ - 270° 270° 15 - 28 kt METAR DAAD 260600Z 27015G28KT 9999 FEW030 SCT233 12/04 Q1013